Time;durP1;ratioP1;P1;durP2;ratioP2;P2;SDS_P1;SDS_P2;PMS_P1;PMS_P2;Temp;Humidity;BMP_temperature;BMP_pressure;BME280_temperature;BME280_humidity;BME280_pressure;Samples;Min_cycle;Max_cycle;Signal;HPM_P1;HPM_P2
2022/02/20 00:02:31;;;;;;;7.30;1.90;;;;;;;-145.06;0.00;60892.56;4840044;28;20034;-88
2022/02/20 00:05:10;;;;;;;12.07;1.95;;;;;;;-145.06;0.00;60892.56;4820869;28;20476;-88
2022/02/20 00:07:48;;;;;;;7.60;1.77;;;;;;;187.52;0.00;60892.56;4842465;28;20037;-87
2022/02/20 00:10:27;;;;;;;7.38;1.90;;;;;;;9.38;0.00;60892.56;4837261;28;20022;-88
2022/02/20 00:13:08;;;;;;;8.93;2.13;;;;;;;-145.06;0.00;60892.56;4852773;28;20029;-88
2022/02/20 00:15:47;;;;;;;8.95;2.20;;;;;;;-145.06;0.00;60892.56;4840376;28;20038;-88
2022/02/20 00:18:26;;;;;;;12.90;2.23;;;;;;;-145.06;0.00;60892.56;4833172;28;20053;-88
2022/02/20 00:21:05;;;;;;;8.63;1.90;;;;;;;9.38;0.00;60892.56;4847744;28;20041;-86
2022/02/20 00:23:44;;;;;;;10.27;2.17;;;;;;;-145.06;0.00;60892.56;4831159;28;20030;-88
2022/02/20 00:26:23;;;;;;;11.02;2.63;;;;;;;-145.06;0.00;60892.56;4848647;28;20030;-87
2022/02/20 00:29:02;;;;;;;9.23;2.27;;;;;;;-145.06;0.00;60892.56;4838370;28;20038;-87
2022/02/20 00:31:41;;;;;;;10.13;1.90;;;;;;;-145.06;0.00;60892.56;4837853;28;20373;-88
2022/02/20 00:34:20;;;;;;;8.63;2.13;;;;;;;-145.06;0.00;60892.56;4824722;28;20034;-87
2022/02/20 00:36:59;;;;;;;8.13;2.27;;;;;;;-145.06;0.00;60892.56;4845221;28;20033;-86
2022/02/20 00:39:38;;;;;;;9.23;2.40;;;;;;;-145.06;0.00;60892.56;4829540;28;20045;-88
2022/02/20 00:42:17;;;;;;;9.20;2.38;;;;;;;-145.06;0.00;60892.56;4833132;28;20042;-88
2022/02/20 00:44:56;;;;;;;8.30;2.33;;;;;;;187.52;0.00;60892.56;4830739;28;20057;-88
2022/02/20 00:47:35;;;;;;;10.40;2.30;;;;;;;-145.06;0.00;60892.56;4844792;28;20041;-88
2022/02/20 00:50:14;;;;;;;7.37;2.00;;;;;;;-145.06;0.00;60892.56;4839560;28;20292;-89
2022/02/20 00:52:53;;;;;;;6.40;1.90;;;;;;;-145.06;0.00;60892.56;4835301;28;20373;-88
2022/02/20 00:55:33;;;;;;;7.03;1.85;;;;;;;-145.06;0.00;60892.56;4836094;28;20269;-88
2022/02/20 00:58:12;;;;;;;5.43;1.50;;;;;;;-145.06;0.00;60892.56;4829573;28;20037;-88
2022/02/20 01:00:51;;;;;;;4.40;1.50;;;;;;;-145.06;0.00;60892.56;4840792;28;20268;-89
2022/02/20 01:03:30;;;;;;;4.18;1.40;;;;;;;-145.06;0.00;60892.56;4860217;28;20041;-88
2022/02/20 01:06:10;;;;;;;;;;;;;;;-145.06;0.00;60892.56;4846037;28;20038;-89
2022/02/20 01:08:49;;;;;;;;;;;;;;;-145.06;0.00;60892.56;4843483;28;19913;-88
2022/02/20 01:11:29;;;;;;;5.50;1.50;;;;;;;-145.06;0.00;60892.56;4862190;28;19930;-87
2022/02/20 01:14:08;;;;;;;9.32;2.13;;;;;;;-145.06;0.00;60892.56;4849657;28;20030;-88
2022/02/20 01:16:47;;;;;;;4.83;1.40;;;;;;;-145.06;0.00;60892.56;4836076;28;20037;-89
2022/02/20 01:19:26;;;;;;;4.28;1.30;;;;;;;-145.06;0.00;60892.56;4830891;28;20274;-88
2022/02/20 01:22:05;;;;;;;5.97;1.40;;;;;;;-145.06;0.00;60892.56;4841210;28;20081;-87
2022/02/20 01:24:44;;;;;;;3.28;1.30;;;;;;;-145.06;0.00;60892.56;4849748;28;20030;-89
2022/02/20 01:27:24;;;;;;;3.33;1.20;;;;;;;-145.06;0.00;60892.56;4823313;28;20037;-89
2022/02/20 01:30:03;;;;;;;;;;;;;;;-145.06;0.00;60892.56;4833693;28;20034;-88
2022/02/20 01:32:42;;;;;;;2.55;1.10;;;;;;;-145.06;0.00;60892.56;4838670;28;19910;-89
2022/02/20 01:35:21;;;;;;;4.63;1.33;;;;;;;10.68;0.00;60892.56;4832611;28;20038;-89
2022/02/20 01:38:00;;;;;;;2.22;1.00;;;;;;;-145.06;0.00;60892.56;4847591;28;20373;-88
2022/02/20 01:40:39;;;;;;;2.17;0.90;;;;;;;-145.06;0.00;60892.56;4827431;28;20030;-90
2022/02/20 01:43:18;;;;;;;2.83;1.00;;;;;;;-145.06;0.00;60892.56;4845240;28;20612;-88
2022/02/20 01:45:57;;;;;;;4.10;1.35;;;;;;;-145.06;0.00;60892.56;4828020;28;20285;-89
2022/02/20 01:48:36;;;;;;;2.45;1.08;;;;;;;-145.06;0.00;60892.56;4842686;28;20116;-88
2022/02/20 01:51:16;;;;;;;3.05;1.08;;;;;;;-145.06;0.00;60892.56;4839104;28;20041;-88
2022/02/20 01:53:55;;;;;;;3.65;1.08;;;;;;;-145.06;0.00;60892.56;4849013;28;20491;-89
2022/02/20 01:56:35;;;;;;;7.07;1.20;;;;;;;-145.06;0.00;60892.56;4833395;28;20551;-88
2022/02/20 01:59:16;;;;;;;3.25;1.25;;;;;;;-145.06;0.00;60892.56;4824772;28;20669;-88
2022/02/20 02:01:55;;;;;;;3.17;1.10;;;;;;;21.08;0.00;60892.56;4832437;28;20042;-88
2022/02/20 02:04:35;;;;;;;4.72;1.33;;;;;;;-145.06;0.00;60892.56;4836741;28;20125;-89
2022/02/20 02:07:14;;;;;;;3.15;1.13;;;;;;;-145.06;0.00;60892.56;4847310;28;20137;-89
2022/02/20 02:09:53;;;;;;;3.73;1.03;;;;;;;-145.06;0.00;60892.56;4835963;28;20030;-88
2022/02/20 02:12:34;;;;;;;4.37;1.40;;;;;;;-145.06;0.00;60892.56;4846738;28;20029;-88
2022/02/20 02:15:13;;;;;;;4.82;1.40;;;;;;;-145.06;0.00;60892.56;4829021;28;20285;-89
2022/02/20 02:17:52;;;;;;;1.20;0.82;;;;;;;-145.06;0.00;60892.56;4847410;28;20432;-89
2022/02/20 02:20:31;;;;;;;3.25;0.90;;;;;;;-145.06;0.00;60892.56;4833882;28;20041;-89
2022/02/20 02:23:13;;;;;;;1.57;0.80;;;;;;;8.08;0.00;60892.56;4830226;28;20112;-90
2022/02/20 02:25:57;;;;;;;1.67;0.80;;;;;;;-145.06;0.00;60892.56;4836429;28;20535;-90
2022/02/20 02:28:36;;;;;;;2.00;0.98;;;;;;;-145.06;0.00;60892.56;4838571;28;20034;-89
2022/02/20 02:31:17;;;;;;;3.20;0.95;;;;;;;-145.06;0.00;60892.56;4838732;28;20042;-91
2022/02/20 02:33:56;;;;;;;3.85;1.00;;;;;;;-145.06;0.00;60892.56;4857178;28;20034;-90
2022/02/20 02:36:35;;;;;;;5.63;1.05;;;;;;;-145.06;0.00;60892.56;4833152;28;20042;-89
2022/02/20 02:39:14;;;;;;;5.30;1.33;;;;;;;-145.06;0.00;60892.56;4829876;28;20479;-89
2022/02/20 02:41:53;;;;;;;2.47;1.00;;;;;;;-145.06;0.00;60892.56;4835554;28;20368;-90
2022/02/20 02:44:32;;;;;;;3.83;0.88;;;;;;;-145.06;0.00;60892.56;4846956;28;20034;-89
2022/02/20 02:47:11;;;;;;;2.07;0.80;;;;;;;-145.06;0.00;60892.56;4840427;28;20042;-89
2022/02/20 02:49:50;;;;;;;3.30;0.98;;;;;;;-145.06;0.00;60892.56;4821417;28;20500;-88
2022/02/20 02:52:29;;;;;;;3.30;1.20;;;;;;;7.24;0.00;60892.56;4829872;28;20376;-89
2022/02/20 02:55:09;;;;;;;2.45;0.88;;;;;;;-145.06;0.00;60892.56;4830530;28;20547;-88
2022/02/20 02:57:47;;;;;;;4.70;1.25;;;;;;;-145.06;0.00;60892.56;4834844;28;20034;-90
2022/02/20 03:00:28;;;;;;;2.67;0.90;;;;;;;-145.06;0.00;60892.56;4836860;28;20034;-90
2022/02/20 03:03:07;;;;;;;2.63;0.90;;;;;;;-145.06;0.00;60892.56;4826862;28;20290;-90
2022/02/20 03:05:47;;;;;;;2.20;0.77;;;;;;;-145.06;0.00;60892.56;4847224;28;20041;-89
2022/02/20 03:08:26;;;;;;;1.73;0.70;;;;;;;-145.06;0.00;60892.56;4836806;28;20045;-89
2022/02/20 03:11:05;;;;;;;;;;;;;;;-145.06;0.00;60892.56;4829137;28;20038;-90
2022/02/20 03:13:44;;;;;;;1.88;0.70;;;;;;;-145.06;0.00;60892.56;4821271;28;19953;-90
2022/02/20 03:16:23;;;;;;;4.32;1.15;;;;;;;-145.06;0.00;60892.56;4869075;28;20034;-90
2022/02/20 03:19:02;;;;;;;3.33;1.00;;;;;;;-145.06;0.00;60892.56;4836791;28;20034;-90
2022/02/20 03:21:41;;;;;;;3.00;0.73;;;;;;;-145.06;0.00;60892.56;4832573;28;20277;-90
2022/02/20 03:24:21;;;;;;;1.65;0.68;;;;;;;-145.06;0.00;60892.56;4829269;28;20038;-89
2022/02/20 03:26:59;;;;;;;2.05;0.82;;;;;;;-145.06;0.00;60892.56;4829210;28;20029;-88
2022/02/20 03:29:38;;;;;;;3.20;1.07;;;;;;;-145.06;0.00;60892.56;4835401;28;20025;-89
2022/02/20 03:32:17;;;;;;;2.80;0.93;;;;;;;-145.06;0.00;60892.56;4838176;28;20266;-90
2022/02/20 03:34:56;;;;;;;3.37;0.90;;;;;;;-145.06;0.00;60892.56;4834184;28;20266;-89
2022/02/20 03:37:36;;;;;;;3.58;0.90;;;;;;;-145.06;0.00;60892.56;4833732;28;20037;-90
2022/02/20 03:40:15;;;;;;;2.03;0.68;;;;;;;-145.06;0.00;60892.56;4838845;28;20042;-89
2022/02/20 03:42:54;;;;;;;1.58;1.00;;;;;;;-145.06;0.00;60892.56;4843248;28;20535;-90
2022/02/20 03:45:33;;;;;;;4.07;1.00;;;;;;;-145.06;0.00;60892.56;4849392;28;20033;-91
2022/02/20 03:48:12;;;;;;;2.78;1.00;;;;;;;-145.06;0.00;60892.56;4838538;28;20033;-88
2022/02/20 03:50:51;;;;;;;2.10;0.95;;;;;;;-145.06;0.00;60892.56;4837706;28;20026;-89
2022/02/20 03:53:30;;;;;;;1.83;1.20;;;;;;;-145.06;0.00;60892.56;4833728;28;20500;-90
2022/02/20 03:56:09;;;;;;;3.85;1.23;;;;;;;-145.06;0.00;60892.56;4828955;28;20050;-90
2022/02/20 03:58:48;;;;;;;3.75;1.00;;;;;;;-145.06;0.00;60892.56;4849528;28;20226;-90
2022/02/20 04:01:27;;;;;;;3.00;1.10;;;;;;;-145.06;0.00;60892.56;4841023;28;20029;-90
2022/02/20 04:04:06;;;;;;;2.05;1.00;;;;;;;-145.06;0.00;60892.56;4826750;28;20101;-89
2022/02/20 04:06:45;;;;;;;6.63;1.07;;;;;;;-145.06;0.00;60892.56;4841401;28;20484;-90
2022/02/20 04:09:25;;;;;;;4.72;1.45;;;;;;;-145.06;0.00;60892.56;4829675;28;20034;-89
2022/02/20 04:12:04;;;;;;;;;;;;;;;-145.06;0.00;60892.56;4846801;28;20026;-89
2022/02/20 04:14:43;;;;;;;6.82;0.95;;;;;;;-145.06;0.00;60892.56;4837730;28;19909;-89
2022/02/20 04:17:24;;;;;;;3.97;1.33;;;;;;;-145.06;0.00;60892.56;4836110;28;20949;-90
2022/02/20 04:20:04;;;;;;;6.60;1.48;;;;;;;-145.06;0.00;60892.56;4849850;28;20034;-89
2022/02/20 04:22:45;;;;;;;4.60;1.58;;;;;;;-145.06;0.00;60892.56;4840906;28;20038;-90
2022/02/20 04:25:24;;;;;;;2.30;1.00;;;;;;;-145.06;0.00;60892.56;4833468;28;20069;-89
2022/02/20 04:28:04;;;;;;;4.43;1.67;;;;;;;-145.06;0.00;60892.56;4831275;28;20461;-89
2022/02/20 04:30:42;;;;;;;2.65;1.02;;;;;;;-145.06;0.00;60892.56;4853725;28;20037;-90
2022/02/20 04:33:21;;;;;;;2.97;0.98;;;;;;;-145.06;0.00;60892.56;4842273;28;20057;-89
2022/02/20 04:36:00;;;;;;;2.17;0.93;;;;;;;-145.06;0.00;60892.56;4862955;28;20022;-90
2022/02/20 04:38:39;;;;;;;4.70;1.20;;;;;;;-145.06;0.00;60892.56;4853182;28;20312;-88
2022/02/20 04:41:21;;;;;;;3.45;1.20;;;;;;;-145.06;0.00;60892.56;4839784;28;20033;-88
2022/02/20 04:44:00;;;;;;;7.72;1.50;;;;;;;-145.06;0.00;60892.56;4842858;28;20030;-90
2022/02/20 04:46:39;;;;;;;2.72;1.23;;;;;;;-145.06;0.00;60892.56;4823271;28;20035;-89
2022/02/20 04:49:18;;;;;;;5.88;1.45;;;;;;;-145.06;0.00;60892.56;4838322;28;20404;-90
2022/02/20 04:51:57;;;;;;;4.03;1.10;;;;;;;-145.06;0.00;60892.56;4850440;28;20116;-88
2022/02/20 04:54:36;;;;;;;5.07;1.25;;;;;;;21.08;0.00;60892.56;4842331;28;20033;-90
2022/02/20 04:57:15;;;;;;;4.83;1.47;;;;;;;21.08;0.00;60892.56;4846231;28;20116;-88
2022/02/20 04:59:55;;;;;;;5.80;1.30;;;;;;;21.08;0.00;60892.56;4853301;28;20104;-89
2022/02/20 05:02:34;;;;;;;5.65;1.30;;;;;;;-145.06;0.00;60892.56;4820502;28;20034;-90
2022/02/20 05:05:13;;;;;;;7.72;1.50;;;;;;;-145.06;0.00;60892.56;4829843;28;20022;-90
2022/02/20 05:07:52;;;;;;;4.83;1.40;;;;;;;-145.06;0.00;60892.56;4827856;28;20033;-89
2022/02/20 05:10:31;;;;;;;6.18;1.27;;;;;;;-145.06;0.00;60892.56;4839720;28;20069;-89
2022/02/20 05:13:10;;;;;;;3.27;1.30;;;;;;;8.08;0.00;60892.56;4831171;28;20038;-88
2022/02/20 05:15:49;;;;;;;3.85;1.50;;;;;;;-145.06;0.00;60892.56;4837972;28;20277;-90
2022/02/20 05:18:28;;;;;;;6.30;1.80;;;;;;;-145.06;0.00;60892.56;4840881;28;20037;-89
2022/02/20 05:21:07;;;;;;;3.03;1.13;;;;;;;-145.06;0.00;60892.56;4831093;28;20034;-90
2022/02/20 05:23:46;;;;;;;7.57;1.40;;;;;;;-145.06;0.00;60892.56;4843336;28;20108;-89
2022/02/20 05:26:25;;;;;;;6.23;1.40;;;;;;;21.08;0.00;60892.56;4845456;28;20046;-89
2022/02/20 05:29:04;;;;;;;4.18;1.40;;;;;;;-145.06;0.00;60892.56;4854082;28;20034;-90
2022/02/20 05:31:43;;;;;;;5.93;1.58;;;;;;;-145.06;0.00;60892.56;4838631;28;20041;-90
2022/02/20 05:34:22;;;;;;;3.95;1.60;;;;;;;-145.06;0.00;60892.56;4833737;28;20034;-90
2022/02/20 05:37:01;;;;;;;9.10;1.87;;;;;;;-145.06;0.00;60892.56;4842288;28;20037;-90
2022/02/20 05:39:40;;;;;;;6.97;1.50;;;;;;;-145.06;0.00;60892.56;4857461;28;20124;-89
2022/02/20 05:42:19;;;;;;;5.70;1.70;;;;;;;-145.06;0.00;60892.56;4838814;28;20041;-89
2022/02/20 05:44:58;;;;;;;4.15;1.30;;;;;;;-145.06;0.00;60892.56;4830678;28;20278;-89
2022/02/20 05:47:37;;;;;;;6.80;1.85;;;;;;;-145.06;0.00;60892.56;4832149;28;20041;-89
2022/02/20 05:50:17;;;;;;;7.82;1.80;;;;;;;-145.06;0.00;60892.56;4836180;28;20037;-90
2022/02/20 05:52:57;;;;;;;7.43;2.00;;;;;;;-145.06;0.00;60892.56;4852530;28;20026;-90
2022/02/20 05:55:37;;;;;;;3.67;1.45;;;;;;;-145.06;0.00;60892.56;4857516;28;20026;-90
2022/02/20 05:58:17;;;;;;;4.80;1.42;;;;;;;-145.06;0.00;60892.56;4836880;28;20073;-89
2022/02/20 06:00:56;;;;;;;5.72;1.52;;;;;;;-145.06;0.00;60892.56;4837377;28;20042;-89
2022/02/20 06:03:35;;;;;;;5.97;1.55;;;;;;;-145.06;0.00;60892.56;4836096;28;20069;-89
2022/02/20 06:06:14;;;;;;;6.40;1.93;;;;;;;-145.06;0.00;60892.56;4836851;28;20041;-89
2022/02/20 06:08:53;;;;;;;6.63;1.90;;;;;;;-145.06;0.00;60892.56;4837467;28;20786;-88
2022/02/20 06:11:35;;;;;;;8.00;1.83;;;;;;;-145.06;0.00;60892.56;4834047;28;20414;-88
2022/02/20 06:14:13;;;;;;;8.40;1.80;;;;;;;-145.06;0.00;60892.56;4839903;28;20439;-89
2022/02/20 06:16:52;;;;;;;5.60;1.57;;;;;;;-145.06;0.00;60892.56;4833116;28;20033;-88
2022/02/20 06:19:31;;;;;;;7.20;1.73;;;;;;;-145.06;0.00;60892.56;4834250;28;20029;-88
2022/02/20 06:22:12;;;;;;;6.35;1.45;;;;;;;187.52;0.00;60892.56;4826544;28;20476;-89
2022/02/20 06:24:51;;;;;;;9.05;1.80;;;;;;;-145.06;0.00;60892.56;4834520;28;20066;-88
2022/02/20 06:27:46;;;;;;;3.58;1.10;;;;;;;-145.06;0.00;60892.56;4849196;28;20061;-88
2022/02/20 06:30:25;;;;;;;7.07;1.48;;;;;;;-145.06;0.00;60892.56;4821923;28;20033;-89
2022/02/20 06:33:04;;;;;;;8.33;1.63;;;;;;;-145.06;0.00;60892.56;4837270;28;20029;-89
2022/02/20 06:35:43;;;;;;;4.22;1.55;;;;;;;-145.06;0.00;60892.56;4843974;28;20279;-88
2022/02/20 06:38:22;;;;;;;8.00;1.75;;;;;;;-145.06;0.00;60892.56;4836420;28;20030;-88
2022/02/20 06:41:01;;;;;;;7.82;2.00;;;;;;;-145.06;0.00;60892.56;4828895;28;20042;-87
2022/02/20 06:43:40;;;;;;;8.10;2.20;;;;;;;-145.06;0.00;60892.56;4834121;28;20066;-89
2022/02/20 06:46:19;;;;;;;7.57;1.57;;;;;;;-145.06;0.00;60892.56;4828183;28;20033;-89
2022/02/20 06:48:58;;;;;;;8.93;1.60;;;;;;;-145.06;0.00;60892.56;4836211;28;20041;-89
2022/02/20 06:51:37;;;;;;;5.45;1.70;;;;;;;-145.06;0.00;60892.56;4854474;28;20045;-88
2022/02/20 06:54:16;;;;;;;4.70;1.42;;;;;;;-145.06;0.00;60892.56;4828040;28;20026;-89
2022/02/20 06:56:57;;;;;;;8.43;1.60;;;;;;;-145.06;0.00;60892.56;4829660;28;20038;-88
2022/02/20 06:59:37;;;;;;;5.55;1.70;;;;;;;-145.06;0.00;60892.56;4827511;28;20057;-88
2022/02/20 07:02:16;;;;;;;5.93;1.10;;;;;;;-145.06;0.00;60892.56;4835106;28;20760;-89
2022/02/20 07:04:55;;;;;;;4.97;1.33;;;;;;;-145.06;0.00;60892.56;4835221;28;20042;-88
2022/02/20 07:07:34;;;;;;;5.72;1.40;;;;;;;-145.06;0.00;60892.56;4842140;28;20029;-89
2022/02/20 07:10:13;;;;;;;5.65;1.42;;;;;;;-145.06;0.00;60892.56;4835781;28;20109;-88
2022/02/20 07:12:53;;;;;;;5.13;1.48;;;;;;;-145.06;0.00;60892.56;4833316;28;20476;-89
2022/02/20 07:15:32;;;;;;;3.08;1.30;;;;;;;187.52;0.00;60892.56;4830425;28;20441;-88
2022/02/20 07:18:11;;;;;;;5.00;1.35;;;;;;;-145.06;0.00;60892.56;4836353;28;20077;-89
2022/02/20 07:20:50;;;;;;;7.10;1.80;;;;;;;-145.06;0.00;60892.56;4831210;28;20041;-88
2022/02/20 07:23:29;;;;;;;6.15;1.60;;;;;;;-145.06;0.00;60892.56;4835668;28;20061;-88
2022/02/20 07:26:08;;;;;;;8.57;2.00;;;;;;;-145.06;0.00;60892.56;4830965;28;20034;-88
2022/02/20 07:28:47;;;;;;;3.42;1.15;;;;;;;-145.06;0.00;60892.56;4832598;28;20380;-88
2022/02/20 07:31:27;;;;;;;3.83;0.93;;;;;;;-145.06;0.00;60892.56;4843896;28;20440;-88
2022/02/20 07:34:06;;;;;;;3.92;1.25;;;;;;;187.52;0.00;60892.56;4842388;28;20026;-89
2022/02/20 07:36:45;;;;;;;4.53;1.30;;;;;;;-145.06;0.00;60892.56;4835730;28;20029;-88
2022/02/20 07:39:24;;;;;;;3.00;0.97;;;;;;;-145.06;0.00;60892.56;4833290;28;20025;-88
2022/02/20 07:42:04;;;;;;;5.23;1.17;;;;;;;-145.06;0.00;60892.56;4833396;28;20490;-88
2022/02/20 07:44:42;;;;;;;3.10;0.90;;;;;;;-145.06;0.00;60892.56;4832287;28;20034;-88
2022/02/20 07:47:21;;;;;;;3.23;1.10;;;;;;;-145.06;0.00;60892.56;4837616;28;20026;-87
2022/02/20 07:50:00;;;;;;;3.97;1.13;;;;;;;-145.06;0.00;60892.56;4835255;28;20034;-88
2022/02/20 07:52:39;;;;;;;2.77;1.10;;;;;;;-145.06;0.00;60892.56;4844662;28;20037;-87
2022/02/20 07:55:18;;;;;;;2.92;1.00;;;;;;;-145.06;0.00;60892.56;4857924;28;20065;-87
2022/02/20 07:58:07;;;;;;;3.33;0.98;;;;;;;-145.06;0.00;60892.56;4856190;28;20038;-87
2022/02/20 08:00:46;;;;;;;3.03;0.90;;;;;;;-145.06;0.00;60892.56;4839922;28;20038;-87
2022/02/20 08:03:25;;;;;;;2.83;0.90;;;;;;;-145.06;0.00;60892.56;4831265;28;20062;-87
2022/02/20 08:06:05;;;;;;;2.47;0.77;;;;;;;-145.06;0.00;60892.56;4836238;28;20588;-88
2022/02/20 08:08:44;;;;;;;;;;;;;;;-145.06;0.00;60892.56;4839034;28;20384;-88
2022/02/20 08:11:23;;;;;;;5.38;1.10;;;;;;;-145.06;0.00;60892.56;4838728;28;19913;-87
2022/02/20 08:14:04;;;;;;;3.33;0.85;;;;;;;-145.06;0.00;60892.56;4836548;28;20033;-89
2022/02/20 08:16:43;;;;;;;2.83;0.82;;;;;;;9.09;0.00;60892.56;4839406;28;20496;-88
2022/02/20 08:19:22;;;;;;;3.08;0.90;;;;;;;-145.06;0.00;60892.56;4834034;28;20056;-89
2022/02/20 08:22:01;;;;;;;3.58;0.85;;;;;;;-145.06;0.00;60892.56;4833255;28;20483;-89
2022/02/20 08:24:40;;;;;;;1.77;0.80;;;;;;;9.22;0.00;60892.56;4833309;28;20182;-88
2022/02/20 08:27:19;;;;;;;1.85;0.60;;;;;;;9.11;0.00;60892.56;4827939;28;20046;-88
2022/02/20 08:29:58;;;;;;;1.75;0.70;;;;;;;21.08;0.00;60892.56;4828069;28;20042;-89
2022/02/20 08:32:39;;;;;;;0.77;0.50;;;;;;;-145.06;0.00;60892.56;4837796;28;20034;-88
2022/02/20 08:35:18;;;;;;;3.97;0.75;;;;;;;-145.06;0.00;60892.56;4848542;28;20061;-87
2022/02/20 08:37:57;;;;;;;1.55;0.60;;;;;;;-145.06;0.00;60892.56;4835103;28;20368;-87
2022/02/20 08:40:42;;;;;;;2.92;0.70;;;;;;;-145.06;0.00;60892.56;4837064;28;20672;-89
2022/02/20 08:43:21;;;;;;;0.50;0.43;;;;;;;187.52;0.00;60892.56;4838909;28;20116;-87
2022/02/20 08:46:00;;;;;;;0.93;0.60;;;;;;;-145.06;0.00;60892.56;4850277;28;20480;-88
2022/02/20 08:48:40;;;;;;;1.38;0.70;;;;;;;-145.06;0.00;60892.56;4830238;28;20083;-88
2022/02/20 08:51:19;;;;;;;0.82;0.63;;;;;;;-145.06;0.00;60892.56;4832142;28;20038;-88
2022/02/20 08:53:58;;;;;;;1.13;0.60;;;;;;;-145.06;0.00;60892.56;4824584;28;20365;-88
2022/02/20 08:56:37;;;;;;;2.13;0.77;;;;;;;-145.06;0.00;60892.56;4832356;28;20045;-87
2022/02/20 08:59:16;;;;;;;1.98;0.70;;;;;;;-145.06;0.00;60892.56;4832643;28;20108;-88
2022/02/20 09:01:54;;;;;;;0.70;0.40;;;;;;;-145.06;0.00;60892.56;4827822;28;20113;-87
2022/02/20 09:04:33;;;;;;;1.93;0.50;;;;;;;-145.06;0.00;60892.56;4832892;28;20943;-88
2022/02/20 09:07:13;;;;;;;2.58;0.50;;;;;;;-145.06;0.00;60892.56;4836052;28;20281;-88
2022/02/20 09:09:52;;;;;;;0.82;0.50;;;;;;;9.62;0.00;60892.56;4836083;28;20041;-88
2022/02/20 09:12:31;;;;;;;2.00;0.47;;;;;;;-145.06;0.00;60892.56;4832846;28;20022;-88
2022/02/20 09:15:10;;;;;;;0.83;0.57;;;;;;;-145.06;0.00;60892.56;4835462;28;20386;-88
2022/02/20 09:17:50;;;;;;;1.40;0.57;;;;;;;-145.06;0.00;60892.56;4831059;28;20037;-88
2022/02/20 09:20:30;;;;;;;1.17;0.47;;;;;;;-145.06;0.00;60892.56;4832390;28;20038;-87
2022/02/20 09:23:09;;;;;;;1.27;0.50;;;;;;;-145.06;0.00;60892.56;4831949;28;20041;-89
2022/02/20 09:25:48;;;;;;;1.67;0.77;;;;;;;-145.06;0.00;60892.56;4824619;28;20488;-88
2022/02/20 09:28:27;;;;;;;2.03;0.67;;;;;;;-145.06;0.00;60892.56;4835598;28;20033;-88
2022/02/20 09:31:06;;;;;;;1.63;0.80;;;;;;;-145.06;0.00;60892.56;4851493;28;20049;-88
2022/02/20 09:33:45;;;;;;;2.93;0.83;;;;;;;-145.06;0.00;60892.56;4834379;28;20041;-87
2022/02/20 09:36:27;;;;;;;2.25;0.60;;;;;;;-145.06;0.00;60892.56;4847976;28;20041;-88
2022/02/20 09:39:06;;;;;;;2.58;0.93;;;;;;;-145.06;0.00;60892.56;4836966;28;20073;-88
2022/02/20 09:41:45;;;;;;;3.78;1.00;;;;;;;187.52;0.00;60892.56;4830442;28;20037;-89
2022/02/20 09:44:27;;;;;;;2.05;0.70;;;;;;;-145.06;0.00;60892.56;4841771;28;20038;-89
2022/02/20 09:47:07;;;;;;;3.65;1.20;;;;;;;-145.06;0.00;60892.56;4833608;28;20034;-88
2022/02/20 09:49:45;;;;;;;3.97;0.90;;;;;;;-145.06;0.00;60892.56;4841054;28;20029;-89
2022/02/20 09:52:25;;;;;;;2.73;0.80;;;;;;;10.32;0.00;60892.56;4830125;28;20038;-89
2022/02/20 09:55:05;;;;;;;2.45;1.00;;;;;;;-145.06;0.00;60892.56;4826627;28;20475;-88
2022/02/20 09:57:45;;;;;;;3.22;0.80;;;;;;;-145.06;0.00;60892.56;4828723;28;20034;-90
2022/02/20 10:00:24;;;;;;;;;;;;;;;187.52;0.00;60892.56;4834946;28;20034;-89
2022/02/20 10:03:03;;;;;;;2.78;0.93;;;;;;;-145.06;0.00;60892.56;4836069;28;19921;-89
2022/02/20 10:05:52;;;;;;;2.92;1.08;;;;;;;-145.06;0.00;60892.56;4838292;28;20388;-89
2022/02/20 10:08:40;;;;;;;3.08;1.05;;;;;;;-145.06;0.00;60892.56;4830234;28;20033;-89
2022/02/20 10:11:26;;;;;;;1.63;0.85;;;;;;;-145.06;0.00;60892.56;4831825;28;20038;-88
2022/02/20 10:14:18;;;;;;;1.77;0.68;;;;;;;-145.06;0.00;60892.56;4837405;28;20033;-90
2022/02/20 10:17:12;;;;;;;3.00;0.70;;;;;;;10.33;0.00;60892.56;4825785;28;20033;-89
2022/02/20 10:20:04;;;;;;;1.90;0.63;;;;;;;-145.06;0.00;60892.56;4846891;28;20108;-89
2022/02/20 10:22:44;;;;;;;2.90;0.60;;;;;;;-145.06;0.00;60892.56;4834304;28;20026;-89
2022/02/20 10:25:24;;;;;;;2.42;0.60;;;;;;;-145.06;0.00;60892.56;4831527;28;20660;-89
2022/02/20 10:28:06;;;;;;;1.17;0.47;;;;;;;-145.06;0.00;60892.56;4837195;28;20061;-89
2022/02/20 10:30:49;;;;;;;1.50;0.60;;;;;;;-145.06;0.00;60892.56;4818752;28;20649;-89
2022/02/20 10:33:29;;;;;;;1.55;0.75;;;;;;;-145.06;0.00;60892.56;4826980;28;20061;-89
2022/02/20 10:36:08;;;;;;;3.33;0.70;;;;;;;-145.06;0.00;60892.56;4833493;28;20041;-89
2022/02/20 10:38:47;;;;;;;1.40;0.60;;;;;;;10.27;0.00;60892.56;4830075;28;20046;-89
2022/02/20 10:41:29;;;;;;;3.83;0.80;;;;;;;-145.06;0.00;60892.56;4831861;28;20042;-89
2022/02/20 10:44:08;;;;;;;0.70;0.55;;;;;;;-145.06;0.00;60892.56;4832907;28;20629;-89
2022/02/20 10:46:47;;;;;;;2.53;0.80;;;;;;;-145.06;0.00;60892.56;4830976;28;20113;-89
2022/02/20 10:49:27;;;;;;;4.35;1.08;;;;;;;-145.06;0.00;60892.56;4845533;28;20037;-88
2022/02/20 10:52:18;;;;;;;;;;;;;;;-145.06;0.00;60892.56;4848774;28;20108;-89
2022/02/20 10:55:09;;;;;;;2.15;0.75;;;;;;;-145.06;0.00;60892.56;4856908;28;19996;-90
2022/02/20 10:57:49;;;;;;;2.45;0.90;;;;;;;-145.06;0.00;60892.56;4835849;28;20492;-89
2022/02/20 11:00:28;;;;;;;1.15;0.73;;;;;;;-145.06;0.00;60892.56;4834359;28;20045;-89
2022/02/20 11:03:08;;;;;;;4.32;0.70;;;;;;;-145.06;0.00;60892.56;4831218;28;20030;-91
2022/02/20 11:05:48;;;;;;;2.67;0.75;;;;;;;-145.06;0.00;60892.56;4848153;28;20025;-89
2022/02/20 11:08:28;;;;;;;1.85;0.60;;;;;;;-145.06;0.00;60892.56;4841540;28;20108;-90
2022/02/20 11:11:36;;;;;;;2.65;0.60;;;;;;;-145.06;0.00;60892.56;4847429;28;20117;-90
2022/02/20 11:14:16;;;;;;;3.67;0.80;;;;;;;11.00;0.00;60892.56;4851417;28;20112;-90
2022/02/20 11:16:56;;;;;;;2.55;0.93;;;;;;;-145.06;0.00;60892.56;4832237;28;20038;-90
2022/02/20 11:19:38;;;;;;;2.80;0.77;;;;;;;-145.06;0.00;60892.56;4831647;28;20026;-89
2022/02/20 11:22:20;;;;;;;3.03;0.93;;;;;;;-145.06;0.00;60892.56;4855380;28;20029;-91
2022/02/20 11:24:59;;;;;;;3.42;1.02;;;;;;;-145.06;0.00;60892.56;4859969;28;20042;-92
2022/02/20 11:27:42;;;;;;;6.05;1.30;;;;;;;-145.06;0.00;60892.56;4838978;28;20113;-90
2022/02/20 11:30:21;;;;;;;3.38;0.95;;;;;;;-145.06;0.00;60892.56;4843577;28;20065;-91
2022/02/20 11:33:07;;;;;;;3.10;1.13;;;;;;;-145.06;0.00;60892.56;4843322;28;20062;-88
2022/02/20 11:35:49;;;;;;;2.40;0.70;;;;;;;-145.06;0.00;60892.56;4843122;28;20042;-90
2022/02/20 11:38:28;;;;;;;3.05;1.20;;;;;;;11.41;0.00;60892.56;4859568;28;20033;-89
2022/02/20 11:41:11;;;;;;;2.33;0.90;;;;;;;-145.06;0.00;60892.56;4835329;28;20038;-90
2022/02/20 11:43:50;;;;;;;4.35;1.33;;;;;;;-145.06;0.00;60892.56;4836061;28;20033;-91
2022/02/20 11:46:43;;;;;;;4.20;1.23;;;;;;;-145.06;0.00;60892.56;4839926;28;20038;-90
2022/02/20 11:49:30;;;;;;;4.00;1.30;;;;;;;-145.06;0.00;60892.56;4835158;28;20277;-90
2022/02/20 11:52:14;;;;;;;3.65;1.30;;;;;;;-145.06;0.00;60892.56;4823189;28;20077;-90
2022/02/20 11:54:57;;;;;;;5.05;1.17;;;;;;;-145.06;0.00;60892.56;4838678;28;20021;-90
2022/02/20 11:57:38;;;;;;;8.70;1.45;;;;;;;11.66;0.00;60892.56;4872301;28;20045;-90
2022/02/20 12:00:20;;;;;;;5.30;1.70;;;;;;;-145.06;0.00;60892.56;4838938;28;20037;-90
2022/02/20 12:03:19;;;;;;;7.72;1.63;;;;;;;11.66;0.00;60892.56;4831767;28;20041;-89
2022/02/20 12:06:14;;;;;;;4.90;1.25;;;;;;;-145.06;0.00;60892.56;4843564;28;20120;-89
2022/02/20 12:08:57;;;;;;;4.72;1.20;;;;;;;-145.06;0.00;60892.56;4848155;28;20041;-89
2022/02/20 12:11:43;;;;;;;4.65;1.40;;;;;;;11.45;0.00;60892.56;4830823;28;20034;-89
2022/02/20 12:14:26;;;;;;;6.95;1.50;;;;;;;11.49;0.00;60892.56;4836382;28;20096;-89
2022/02/20 12:17:08;;;;;;;5.38;1.50;;;;;;;11.58;0.00;60892.56;4847067;28;20022;-89
2022/02/20 12:19:49;;;;;;;4.13;1.70;;;;;;;187.52;0.00;60892.56;4832889;28;20480;-90
2022/02/20 12:22:28;;;;;;;4.32;1.42;;;;;;;-145.06;0.00;60892.56;4826582;28;20030;-89
2022/02/20 12:25:07;;;;;;;4.93;1.88;;;;;;;-145.06;0.00;60892.56;4831013;28;20027;-89
2022/02/20 12:27:46;;;;;;;7.35;1.80;;;;;;;11.53;0.00;60892.56;4825072;28;20046;-89
2022/02/20 12:30:27;;;;;;;2.92;1.38;;;;;;;-145.06;0.00;60892.56;4830618;28;20700;-90